Time;durP1;ratioP1;P1;durP2;ratioP2;P2;SDS_P1;SDS_P2;PMS_P1;PMS_P2;Temp;Humidity;BMP_temperature;BMP_pressure;BME280_temperature;BME280_humidity;BME280_pressure;Samples;Min_cycle;Max_cycle;Signal;HPM_P1;HPM_P2
2021/07/04 00:02:26;;;;;;;3.70;3.40;;;;;;;21.89;44.77;94873.81;5088247;28;20235;-69
2021/07/04 00:04:53;;;;;;;4.00;3.70;;;;;;;22.00;44.77;94880.31;5084704;28;20631;-66
2021/07/04 00:07:20;;;;;;;3.70;3.40;;;;;;;22.15;44.52;94877.06;5072950;28;20218;-65
2021/07/04 00:09:47;;;;;;;4.10;3.57;;;;;;;22.21;44.19;94870.38;5092310;28;20207;-68
2021/07/04 00:12:13;;;;;;;4.00;3.60;;;;;;;22.34;44.02;94871.22;5093090;28;20191;-67
2021/07/04 00:14:40;;;;;;;4.17;3.43;;;;;;;22.49;43.59;94870.59;5088534;28;20188;-67
2021/07/04 00:17:07;;;;;;;4.00;3.70;;;;;;;22.62;43.74;94874.88;5083325;28;20206;-68
2021/07/04 00:19:34;;;;;;;5.40;4.00;;;;;;;22.50;44.31;94862.25;5092783;28;20210;-67
2021/07/04 00:22:01;;;;;;;6.40;4.00;;;;;;;22.34;44.52;94853.31;5092881;28;20207;-68
2021/07/04 00:24:28;;;;;;;5.47;4.00;;;;;;;22.36;44.69;94861.78;5078629;28;20260;-65
2021/07/04 00:26:55;;;;;;;5.30;3.73;;;;;;;22.24;45.42;94858.28;5092690;28;20742;-68
2021/07/04 00:29:23;;;;;;;5.53;4.10;;;;;;;22.34;45.52;94857.84;5092008;28;20707;-66
2021/07/04 00:31:50;;;;;;;7.83;4.67;;;;;;;22.32;45.94;94858.19;5092265;28;20231;-66
2021/07/04 00:34:17;;;;;;;4.80;4.30;;;;;;;22.28;45.64;94849.28;5090807;28;20222;-66
2021/07/04 00:36:45;;;;;;;10.20;4.40;;;;;;;22.25;46.13;94860.63;5092723;28;20242;-66
2021/07/04 00:39:12;;;;;;;4.70;4.30;;;;;;;22.24;46.18;94856.41;5091702;28;20198;-67
2021/07/04 00:41:39;;;;;;;4.73;4.33;;;;;;;22.18;46.22;94855.03;5092812;28;20264;-68
2021/07/04 00:44:06;;;;;;;5.53;5.03;;;;;;;21.95;46.35;94851.19;5092314;28;21062;-67
2021/07/04 00:46:33;;;;;;;8.37;4.90;;;;;;;21.80;46.48;94854.44;5092996;28;20202;-67
2021/07/04 00:49:01;;;;;;;5.33;4.83;;;;;;;21.73;47.02;94838.16;5090223;28;22348;-66
2021/07/04 00:51:31;;;;;;;6.33;4.90;;;;;;;21.78;46.89;94851.28;5088582;28;20269;-64
2021/07/04 00:53:58;;;;;;;6.10;4.87;;;;;;;21.59;47.44;94853.63;5087745;28;20282;-64
2021/07/04 00:56:26;;;;;;;5.00;4.50;;;;;;;21.43;47.36;94844.63;5084436;28;20684;-67
2021/07/04 00:58:54;;;;;;;7.63;4.67;;;;;;;21.26;47.74;94850.84;5084723;28;20286;-70
2021/07/04 01:01:21;;;;;;;5.83;4.63;;;;;;;21.30;47.77;94862.44;5083865;28;20204;-66
2021/07/04 01:03:49;;;;;;;4.80;4.40;;;;;;;21.36;47.64;94860.38;5071980;28;20246;-66
2021/07/04 01:06:17;;;;;;;4.80;4.30;;;;;;;21.22;47.72;94833.19;5075805;28;20275;-68
2021/07/04 01:08:44;;;;;;;5.03;4.63;;;;;;;21.31;47.65;94847.25;5090299;28;20294;-66
2021/07/04 01:11:13;;;;;;;4.93;4.30;;;;;;;21.29;47.65;94846.78;5089945;28;20210;-66
2021/07/04 01:13:40;;;;;;;6.13;4.57;;;;;;;21.36;47.60;94844.38;5092060;28;20575;-68
2021/07/04 01:16:12;;;;;;;6.00;5.00;;;;;;;21.29;47.61;94854.78;5089940;28;20213;-65
2021/07/04 01:18:41;;;;;;;5.00;4.60;;;;;;;21.08;48.33;94844.84;5092004;28;20314;-68
2021/07/04 01:21:15;;;;;;;6.20;4.97;;;;;;;21.05;48.17;94845.50;5089867;28;20199;-65
2021/07/04 01:23:42;;;;;;;5.83;4.97;;;;;;;21.17;47.83;94844.03;5091850;28;20650;-68
2021/07/04 01:26:11;;;;;;;5.13;4.63;;;;;;;21.15;47.68;94845.13;5075952;28;20219;-67
2021/07/04 01:28:39;;;;;;;4.70;4.30;;;;;;;21.18;47.79;94844.47;5092002;28;20237;-65
2021/07/04 01:31:08;;;;;;;4.73;4.23;;;;;;;21.23;47.76;94840.06;5089952;28;20230;-67
2021/07/04 01:33:39;;;;;;;5.40;4.90;;;;;;;21.40;47.63;94839.97;5101019;28;20214;-68
2021/07/04 01:36:18;;;;;;;5.10;4.60;;;;;;;21.02;48.11;94840.03;5102143;28;20211;-65
2021/07/04 01:38:49;;;;;;;6.20;4.63;;;;;;;21.22;47.53;94830.53;5092914;28;20272;-67
2021/07/04 01:41:16;;;;;;;6.57;4.57;;;;;;;21.24;47.79;94825.66;5088110;28;20696;-66
2021/07/04 01:43:44;;;;;;;5.17;4.53;;;;;;;21.37;47.69;94835.28;5083795;28;20218;-65
2021/07/04 01:46:14;;;;;;;4.73;4.33;;;;;;;21.31;47.60;94825.91;5090088;28;20213;-67
2021/07/04 01:48:42;;;;;;;9.77;4.50;;;;;;;21.29;47.81;94828.91;5090232;28;20203;-69
2021/07/04 01:51:17;;;;;;;4.93;4.50;;;;;;;21.27;47.44;94830.31;5083695;28;20645;-69
2021/07/04 01:53:45;;;;;;;6.43;4.40;;;;;;;21.14;47.86;94832.91;5071425;28;20227;-68
2021/07/04 01:56:20;;;;;;;5.13;4.63;;;;;;;20.95;48.39;94827.19;5076379;28;20593;-66
2021/07/04 01:58:51;;;;;;;7.10;4.50;;;;;;;21.29;47.93;94826.25;5089999;28;20206;-65
2021/07/04 02:01:28;;;;;;;4.80;4.20;;;;;;;21.41;47.33;94825.50;5082507;28;20231;-65
2021/07/04 02:03:56;;;;;;;6.60;5.13;;;;;;;21.25;47.69;94817.31;5069320;28;20772;-67
2021/07/04 02:06:23;;;;;;;5.20;4.70;;;;;;;21.40;47.56;94824.75;5069199;28;20196;-68
2021/07/04 02:08:51;;;;;;;4.70;4.30;;;;;;;21.38;47.46;94831.50;5069389;28;20207;-64
2021/07/04 02:11:21;;;;;;;5.07;4.57;;;;;;;21.09;48.23;94825.09;5084098;28;20223;-66
2021/07/04 02:13:53;;;;;;;6.80;5.50;;;;;;;21.09;48.61;94830.41;5082486;28;20206;-68
2021/07/04 02:16:30;;;;;;;10.07;5.70;;;;;;;21.17;48.28;94836.03;5089846;28;20219;-65
2021/07/04 02:19:16;;;;;;;12.00;6.30;;;;;;;21.11;48.21;94838.88;5091156;28;20206;-69
2021/07/04 02:21:56;;;;;;;7.23;6.07;;;;;;;21.15;48.32;94845.13;5089448;28;20754;-65
2021/07/04 02:24:40;;;;;;;10.60;5.80;;;;;;;21.17;48.30;94841.38;5089041;28;20253;-67
2021/07/04 02:27:17;;;;;;;6.40;5.80;;;;;;;21.09;48.54;94846.41;5089204;28;20256;-68
2021/07/04 02:29:50;;;;;;;8.60;6.10;;;;;;;21.13;48.82;94847.31;5090327;28;20248;-67
2021/07/04 02:32:17;;;;;;;7.53;5.57;;;;;;;20.99;48.81;94838.78;5089869;28;20765;-68
2021/07/04 02:34:45;;;;;;;8.57;5.90;;;;;;;20.97;49.08;94843.63;5088947;28;20195;-66
2021/07/04 02:37:14;;;;;;;7.67;5.53;;;;;;;20.94;49.16;94836.28;5089295;28;20248;-67
2021/07/04 02:39:53;;;;;;;6.17;5.50;;;;;;;20.96;49.08;94842.09;5076941;28;20207;-67
2021/07/04 02:42:20;;;;;;;7.47;5.63;;;;;;;20.85;49.63;94843.53;5087993;28;20281;-65
2021/07/04 02:44:47;;;;;;;9.00;6.03;;;;;;;20.93;49.30;94845.38;5088722;28;20264;-65
2021/07/04 02:47:18;;;;;;;6.33;5.73;;;;;;;20.88;49.36;94844.75;5089025;28;20199;-67
2021/07/04 02:49:47;;;;;;;8.07;6.00;;;;;;;20.79;49.68;94847.47;5079338;28;20698;-65
2021/07/04 02:52:15;;;;;;;9.63;6.10;;;;;;;20.76;49.47;94848.13;5085501;28;20429;-65
2021/07/04 02:54:42;;;;;;;6.23;5.63;;;;;;;20.81;49.71;94845.28;5082027;28;20329;-66
2021/07/04 02:57:18;;;;;;;7.77;5.67;;;;;;;20.73;49.65;94847.97;5083532;28;20259;-69
2021/07/04 02:59:47;;;;;;;6.77;5.93;;;;;;;20.68;49.65;94853.47;5081144;28;20267;-70
2021/07/04 03:02:16;;;;;;;9.60;5.60;;;;;;;20.71;49.77;94842.94;5082708;28;20203;-67
2021/07/04 03:04:49;;;;;;;7.33;5.77;;;;;;;20.71;49.59;94845.63;5084956;28;20273;-68
2021/07/04 03:07:17;;;;;;;6.10;5.50;;;;;;;20.75;49.61;94843.09;5083375;28;21024;-67
2021/07/04 03:09:45;;;;;;;8.80;5.50;;;;;;;20.73;49.26;94848.75;5068144;28;20208;-66
2021/07/04 03:12:16;;;;;;;5.80;5.13;;;;;;;20.82;49.39;94852.16;5069377;28;20982;-70
2021/07/04 03:14:44;;;;;;;5.80;5.17;;;;;;;20.77;49.46;94854.22;5087532;28;20245;-68
2021/07/04 03:17:13;;;;;;;6.13;5.47;;;;;;;20.76;49.54;94848.13;5088730;28;20191;-66
2021/07/04 03:19:41;;;;;;;6.73;5.63;;;;;;;20.65;49.72;94854.91;5087792;28;20191;-69
2021/07/04 03:22:08;;;;;;;5.77;5.10;;;;;;;20.70;49.85;94860.03;5089412;28;20546;-70
2021/07/04 03:24:40;;;;;;;5.80;5.30;;;;;;;20.68;50.15;94864.91;5087790;28;20223;-69
2021/07/04 03:27:10;;;;;;;11.00;5.20;;;;;;;20.82;49.55;94862.81;5089268;28;20203;-67
2021/07/04 03:29:39;;;;;;;7.27;5.87;;;;;;;20.65;49.81;94868.22;5087661;28;20437;-69
2021/07/04 03:32:07;;;;;;;5.97;5.40;;;;;;;20.61;49.87;94867.28;5088229;28;20468;-69
2021/07/04 03:34:35;;;;;;;7.93;5.73;;;;;;;20.73;49.78;94864.72;5089190;28;20203;-66
2021/07/04 03:37:03;;;;;;;6.37;5.80;;;;;;;20.71;49.97;94872.25;5089735;28;20202;-70
2021/07/04 03:39:32;;;;;;;5.70;5.20;;;;;;;20.73;50.00;94870.06;5080264;28;20472;-66
2021/07/04 03:41:59;;;;;;;6.23;5.20;;;;;;;20.68;50.15;94872.91;5083020;28;20205;-69
2021/07/04 03:44:31;;;;;;;7.87;5.33;;;;;;;20.81;49.93;94874.56;5088774;28;20940;-67
2021/07/04 03:46:59;;;;;;;6.27;5.77;;;;;;;20.79;49.95;94863.44;5089747;28;20218;-65
2021/07/04 03:49:26;;;;;;;6.60;5.93;;;;;;;20.50;50.57;94868.72;5089336;28;20444;-65
2021/07/04 03:52:05;;;;;;;8.73;5.60;;;;;;;20.44;50.91;94869.97;5088308;28;20440;-69
2021/07/04 03:54:35;;;;;;;8.00;6.00;;;;;;;20.58;50.75;94883.91;5089700;28;20191;-70
2021/07/04 03:57:21;;;;;;;10.30;7.07;;;;;;;20.62;50.82;94884.81;5096222;28;20217;-68
2021/07/04 03:59:56;;;;;;;7.70;6.90;;;;;;;20.25;50.82;94882.88;5094551;28;20444;-67
2021/07/04 04:02:23;;;;;;;8.60;6.97;;;;;;;20.29;51.33;94886.44;5079983;28;20445;-65
2021/07/04 04:04:56;;;;;;;8.30;6.47;;;;;;;20.44;51.02;94890.50;5094945;28;20497;-69
2021/07/04 04:07:25;;;;;;;9.97;6.67;;;;;;;20.61;50.94;94890.44;5090967;28;20442;-65
2021/07/04 04:09:53;;;;;;;7.27;6.57;;;;;;;20.63;50.68;94890.91;5088109;28;20437;-68
2021/07/04 04:12:23;;;;;;;11.23;6.73;;;;;;;20.74;50.46;94892.94;5082288;28;20195;-70
2021/07/04 04:14:50;;;;;;;8.13;6.87;;;;;;;20.92;50.17;94882.97;5074271;28;20191;-66
2021/07/04 04:17:17;;;;;;;8.43;5.97;;;;;;;20.99;49.84;94878.75;5084676;28;20626;-69
2021/07/04 04:19:45;;;;;;;7.70;6.20;;;;;;;21.01;50.15;94884.53;5085103;28;20199;-70
2021/07/04 04:22:14;;;;;;;26.10;23.40;;;;;;;20.93;49.60;94880.00;5087549;28;20202;-65
2021/07/04 04:24:46;;;;;;;8.93;8.13;;;;;;;21.09;50.00;94878.38;5088930;28;20251;-70
2021/07/04 04:27:15;;;;;;;6.67;5.93;;;;;;;21.15;50.10;94887.75;5087095;28;20191;-64
2021/07/04 04:29:43;;;;;;;6.87;6.17;;;;;;;21.10;50.03;94887.94;5087421;28;20221;-67
2021/07/04 04:32:13;;;;;;;11.23;6.43;;;;;;;21.13;50.00;94887.28;5087365;28;20300;-67
2021/07/04 04:34:43;;;;;;;8.00;5.90;;;;;;;21.27;49.62;94884.41;5073435;28;20192;-68
2021/07/04 04:37:11;;;;;;;6.77;5.93;;;;;;;21.24;49.88;94884.28;5084024;28;20204;-69
2021/07/04 04:39:38;;;;;;;7.60;6.30;;;;;;;21.17;50.49;94890.88;5077685;28;20669;-66
2021/07/04 04:42:05;;;;;;;7.07;6.00;;;;;;;21.20;50.82;94894.03;5089505;28;20203;-67
2021/07/04 04:44:35;;;;;;;7.87;6.30;;;;;;;21.26;50.87;94882.09;5079995;28;20878;-65
2021/07/04 04:47:03;;;;;;;8.70;5.70;;;;;;;21.41;50.48;94889.50;5077690;28;20438;-66
2021/07/04 04:49:29;;;;;;;7.27;5.73;;;;;;;21.52;49.89;94893.34;5078467;28;20198;-69
2021/07/04 04:51:57;;;;;;;6.47;5.70;;;;;;;21.50;49.88;94892.88;5079162;28;20188;-68
2021/07/04 04:54:24;;;;;;;7.50;6.17;;;;;;;21.67;49.29;94882.13;5076636;28;20643;-66
2021/07/04 04:56:51;;;;;;;7.97;5.87;;;;;;;21.79;48.97;94884.88;5092234;28;20205;-66
2021/07/04 04:59:18;;;;;;;6.23;5.63;;;;;;;21.64;49.16;94882.78;5077395;28;20280;-67
2021/07/04 05:01:45;;;;;;;6.67;6.03;;;;;;;21.82;49.41;94893.00;5092084;28;20203;-68
2021/07/04 05:04:12;;;;;;;10.00;5.57;;;;;;;21.59;49.85;94882.94;5091930;28;20333;-68
2021/07/04 05:06:41;;;;;;;10.80;6.07;;;;;;;21.91;49.86;94887.63;5092429;28;20197;-69
2021/07/04 05:09:09;;;;;;;8.33;5.70;;;;;;;21.87;49.73;94890.16;5078511;28;20191;-70
2021/07/04 05:11:36;;;;;;;7.47;6.00;;;;;;;22.24;48.88;94899.13;5092320;28;20195;-66
2021/07/04 05:14:03;;;;;;;7.83;5.53;;;;;;;22.30;48.37;94889.78;5077440;28;20253;-68
2021/07/04 05:16:34;;;;;;;6.33;5.70;;;;;;;22.32;48.57;94890.22;5091333;28;20195;-65
2021/07/04 05:19:05;;;;;;;9.00;5.60;;;;;;;22.33;48.75;94891.81;5091465;28;20195;-68
2021/07/04 05:21:33;;;;;;;6.63;5.77;;;;;;;22.44;48.09;94895.63;5092572;28;20590;-67
2021/07/04 05:24:01;;;;;;;6.80;5.27;;;;;;;22.51;48.03;94885.19;5091376;28;20226;-69
2021/07/04 05:26:28;;;;;;;7.27;5.73;;;;;;;22.63;47.91;94901.25;5091435;28;20261;-67
2021/07/04 05:28:56;;;;;;;7.73;5.80;;;;;;;22.62;48.20;94902.38;5091876;28;20226;-66
2021/07/04 05:31:23;;;;;;;6.67;5.57;;;;;;;22.87;47.45;94897.84;5091428;28;20227;-68
2021/07/04 05:33:50;;;;;;;8.50;7.57;;;;;;;22.84;47.27;94893.97;5091844;28;20199;-68
2021/07/04 05:36:18;;;;;;;8.00;5.60;;;;;;;22.93;46.38;94897.31;5090970;28;20577;-69
2021/07/04 05:38:46;;;;;;;8.10;7.07;;;;;;;23.05;46.05;94889.28;5077537;28;20207;-67
2021/07/04 05:41:14;;;;;;;10.70;9.43;;;;;;;22.56;45.47;94893.00;5091297;28;20240;-66
2021/07/04 05:43:43;;;;;;;19.83;13.53;;;;;;;23.05;44.76;94893.84;5076666;28;20219;-66
2021/07/04 05:46:10;;;;;;;7.70;5.57;;;;;;;23.28;45.02;94886.97;5070849;28;20215;-65
2021/07/04 05:48:41;;;;;;;7.10;5.23;;;;;;;23.15;43.87;94890.75;5084987;28;20209;-66
2021/07/04 05:51:08;;;;;;;7.07;5.77;;;;;;;23.41;44.27;94890.44;5086608;28;20261;-67
2021/07/04 05:53:35;;;;;;;6.90;5.03;;;;;;;23.21;44.32;94889.41;5083867;28;20743;-72
2021/07/04 05:56:02;;;;;;;7.73;5.57;;;;;;;23.23;44.41;94897.09;5076280;28;20582;-68
2021/07/04 05:58:29;;;;;;;7.23;5.40;;;;;;;22.98;43.41;94862.34;5080784;28;20211;-69
2021/07/04 06:00:56;;;;;;;6.00;5.40;;;;;;;22.97;44.32;94892.84;5084358;28;20234;-66
2021/07/04 06:03:22;;;;;;;6.53;5.50;;;;;;;23.20;44.30;94900.44;5079793;28;20191;-71
2021/07/04 06:05:49;;;;;;;6.03;5.00;;;;;;;22.71;44.48;94889.72;5075967;28;20199;-66
2021/07/04 06:08:16;;;;;;;6.07;4.90;;;;;;;23.13;44.15;94895.66;5091194;28;20261;-69
2021/07/04 06:10:45;;;;;;;8.93;5.30;;;;;;;23.04;44.34;94893.09;5090869;28;20243;-71
2021/07/04 06:13:12;;;;;;;7.73;5.43;;;;;;;23.23;43.74;94889.84;5090684;28;20199;-69
2021/07/04 06:15:39;;;;;;;11.33;4.93;;;;;;;23.52;44.26;94886.19;5091090;28;20238;-68
2021/07/04 06:18:06;;;;;;;5.43;4.93;;;;;;;23.76;43.68;94886.13;5090629;28;20198;-65
2021/07/04 06:20:33;;;;;;;5.40;4.80;;;;;;;23.80;43.07;94884.34;5091142;28;20191;-67
2021/07/04 06:23:00;;;;;;;6.07;5.17;;;;;;;23.62;42.58;94893.75;5091286;28;20218;-63
2021/07/04 06:25:27;;;;;;;5.73;5.10;;;;;;;23.58;43.13;94892.84;5090604;28;20232;-69
2021/07/04 06:27:54;;;;;;;8.20;5.20;;;;;;;23.85;43.58;94886.78;5093262;28;20187;-69
2021/07/04 06:30:21;;;;;;;8.57;5.10;;;;;;;23.95;42.50;94884.44;5094919;28;20234;-71
2021/07/04 06:32:48;;;;;;;5.93;4.70;;;;;;;24.13;44.05;94874.25;5089087;28;20235;-66
2021/07/04 06:35:17;;;;;;;6.57;5.17;;;;;;;23.84;42.96;94872.66;5089353;28;20202;-68
2021/07/04 06:37:44;;;;;;;8.47;4.87;;;;;;;23.71;43.22;94868.44;5100388;28;20633;-67
2021/07/04 06:40:12;;;;;;;5.70;4.83;;;;;;;23.98;42.90;94882.97;5085945;28;20266;-67
2021/07/04 06:42:39;;;;;;;6.47;4.97;;;;;;;24.44;43.19;94868.97;5078200;28;20198;-68
2021/07/04 06:45:09;;;;;;;7.87;5.13;;;;;;;24.71;42.29;94867.38;5077103;28;20208;-67
2021/07/04 06:47:43;;;;;;;7.60;5.47;;;;;;;24.59;41.44;94862.09;5088822;28;20206;-66
2021/07/04 06:50:12;;;;;;;5.73;5.10;;;;;;;24.21;41.64;94867.19;5077656;28;20281;-67
2021/07/04 06:52:39;;;;;;;6.00;5.20;;;;;;;24.36;42.10;94882.53;5089028;28;20198;-70
2021/07/04 06:55:08;;;;;;;6.47;4.97;;;;;;;24.71;41.33;94860.13;5089616;28;20597;-68
2021/07/04 06:57:35;;;;;;;6.03;5.40;;;;;;;24.91;41.42;94859.09;5087036;28;20661;-72
2021/07/04 07:00:12;;;;;;;10.87;5.33;;;;;;;24.52;41.64;94860.00;5068731;28;20631;-66
2021/07/04 07:02:39;;;;;;;6.53;5.10;;;;;;;24.26;41.80;94861.56;5069534;28;20551;-67
2021/07/04 07:05:09;;;;;;;7.40;4.97;;;;;;;23.31;43.44;94867.59;5078564;28;20211;-66
2021/07/04 07:07:36;;;;;;;12.23;5.80;;;;;;;24.09;42.70;94863.44;5089648;28;20553;-66
2021/07/04 07:10:06;;;;;;;7.63;5.47;;;;;;;24.21;42.36;94865.28;5089512;28;20600;-70
2021/07/04 07:12:33;;;;;;;7.13;5.50;;;;;;;24.40;41.72;94857.38;5075198;28;20304;-66
2021/07/04 07:15:00;;;;;;;7.23;5.53;;;;;;;24.83;41.07;94856.59;5076165;28;20944;-69
2021/07/04 07:17:27;;;;;;;6.50;5.40;;;;;;;24.59;40.92;94854.81;5076724;28;20200;-66
2021/07/04 07:19:58;;;;;;;6.67;5.33;;;;;;;24.28;41.62;94844.06;5087398;28;20272;-67
2021/07/04 07:22:25;;;;;;;7.87;5.40;;;;;;;24.28;41.17;94854.78;5090079;28;20565;-66
2021/07/04 07:24:52;;;;;;;8.83;5.50;;;;;;;24.36;41.38;94856.50;5089127;28;20207;-66
2021/07/04 07:27:22;;;;;;;8.63;5.97;;;;;;;24.33;41.28;94845.69;5088146;28;20742;-72
2021/07/04 07:29:49;;;;;;;8.57;5.73;;;;;;;24.50;40.75;94834.66;5089249;28;20191;-68
2021/07/04 07:32:16;;;;;;;7.27;5.00;;;;;;;24.46;40.97;94833.78;5087615;28;20284;-71
2021/07/04 07:34:43;;;;;;;8.27;5.50;;;;;;;24.58;41.24;94833.75;5068776;28;20231;-68
2021/07/04 07:37:10;;;;;;;9.07;5.40;;;;;;;25.14;39.66;94826.31;5079367;28;20632;-69
2021/07/04 07:39:39;;;;;;;7.17;5.37;;;;;;;25.37;38.69;94821.84;5069182;28;20286;-68
2021/07/04 07:42:05;;;;;;;6.70;5.30;;;;;;;25.72;38.77;94819.97;5085007;28;20199;-67
2021/07/04 07:44:32;;;;;;;7.83;5.13;;;;;;;25.83;38.24;94820.94;5081398;28;20216;-69
2021/07/04 07:47:03;;;;;;;8.67;5.33;;;;;;;25.55;37.94;94823.81;5079263;28;20203;-72
2021/07/04 07:49:31;;;;;;;8.37;7.37;;;;;;;26.06;37.78;94821.81;5089068;28;20675;-68
2021/07/04 07:51:59;;;;;;;6.20;4.80;;;;;;;26.13;37.40;94816.56;5089722;28;20290;-69
2021/07/04 07:54:37;;;;;;;5.83;4.70;;;;;;;26.33;36.93;94826.16;5074326;28;20210;-67
2021/07/04 07:57:07;;;;;;;7.17;4.77;;;;;;;26.43;36.75;94814.06;5076202;28;20188;-66
2021/07/04 07:59:38;;;;;;;8.80;4.53;;;;;;;26.26;36.56;94828.72;5073745;28;20589;-66
2021/07/04 08:02:04;;;;;;;6.00;5.40;;;;;;;26.37;36.71;94824.31;5089376;28;20290;-67
2021/07/04 08:04:31;;;;;;;27.13;22.13;;;;;;;26.82;36.14;94819.00;5074301;28;20229;-65
2021/07/04 08:06:58;;;;;;;12.77;10.63;;;;;;;26.63;35.56;94816.34;5078464;28;20188;-68
2021/07/04 08:09:26;;;;;;;5.17;4.67;;;;;;;26.77;36.00;94815.84;5085216;28;20203;-67
2021/07/04 08:11:53;;;;;;;15.60;11.70;;;;;;;26.70;35.63;94816.50;5089378;28;20198;-66
2021/07/04 08:14:21;;;;;;;6.03;4.30;;;;;;;27.09;34.97;94816.34;5088497;28;20203;-66
2021/07/04 08:16:53;;;;;;;6.60;4.83;;;;;;;26.57;34.42;94811.66;5090047;28;20187;-69
2021/07/04 08:19:20;;;;;;;5.70;4.80;;;;;;;25.85;35.23;94811.44;5084229;28;20258;-74
2021/07/04 08:21:47;;;;;;;5.37;4.13;;;;;;;26.24;35.16;94814.88;5092970;28;20195;-68
2021/07/04 08:24:14;;;;;;;9.57;4.63;;;;;;;25.99;35.57;94818.97;5092203;28;20294;-66
2021/07/04 08:26:41;;;;;;;7.73;4.50;;;;;;;26.22;35.11;94806.41;5092963;28;20209;-72
2021/07/04 08:29:07;;;;;;;9.53;5.10;;;;;;;26.34;35.51;94781.28;5092261;28;20195;-68
2021/07/04 08:31:34;;;;;;;6.87;4.60;;;;;;;26.45;35.36;94806.44;5093190;28;20227;-67
2021/07/04 08:34:02;;;;;;;5.00;4.10;;;;;;;26.59;34.95;94810.13;5092142;28;20187;-71
2021/07/04 08:36:32;;;;;;;9.00;4.10;;;;;;;26.77;34.58;94795.09;5093624;28;20274;-65
2021/07/04 08:39:00;;;;;;;5.23;4.00;;;;;;;26.57;33.96;94798.97;5088227;28;20283;-69
2021/07/04 08:41:28;;;;;;;6.70;4.10;;;;;;;25.98;34.00;94812.06;5083226;28;20248;-65
2021/07/04 08:43:56;;;;;;;7.73;4.30;;;;;;;26.61;33.46;94797.13;5089655;28;20191;-65
2021/07/04 08:46:22;;;;;;;4.80;4.40;;;;;;;26.72;33.67;94798.09;5081297;28;20195;-66
2021/07/04 08:48:49;;;;;;;4.20;3.80;;;;;;;26.74;32.60;94801.22;5091166;28;20199;-66
2021/07/04 08:51:16;;;;;;;9.97;5.00;;;;;;;26.77;32.92;94797.00;5079280;28;20248;-67
2021/07/04 08:53:43;;;;;;;9.00;3.87;;;;;;;26.50;32.93;94790.78;5079094;28;20191;-70
2021/07/04 08:56:10;;;;;;;5.93;4.10;;;;;;;26.15;33.37;94794.75;5077998;28;20240;-70
2021/07/04 08:58:37;;;;;;;7.60;3.60;;;;;;;26.26;32.53;94791.13;5081878;28;20200;-68
2021/07/04 09:01:26;;;;;;;5.03;3.53;;;;;;;26.77;32.25;94783.56;5084606;28;20187;-69
2021/07/04 09:04:06;;;;;;;5.97;4.07;;;;;;;26.24;32.65;94777.25;5080222;28;20268;-64
2021/07/04 09:06:46;;;;;;;11.13;9.80;;;;;;;26.66;33.03;94778.00;5077652;28;20673;-65
2021/07/04 09:09:23;;;;;;;6.00;3.93;;;;;;;27.15;33.75;94788.00;5080547;28;20264;-68
2021/07/04 09:12:10;;;;;;;5.40;3.80;;;;;;;27.73;32.08;94775.75;5080860;28;20192;-66
2021/07/04 09:14:42;;;;;;;4.23;3.50;;;;;;;27.72;31.15;94784.97;5083503;28;20199;-67
2021/07/04 09:17:32;;;;;;;8.43;3.30;;;;;;;27.91;30.44;94782.13;5088731;28;20207;-68
2021/07/04 09:20:00;;;;;;;4.93;3.10;;;;;;;27.30;30.11;94787.84;5093412;28;20214;-67
2021/07/04 09:22:35;;;;;;;8.97;3.07;;;;;;;27.65;29.30;94784.88;5092073;28;20206;-71
2021/07/04 09:25:11;;;;;;;3.57;2.90;;;;;;;27.19;28.67;94788.84;5092306;28;20229;-65
2021/07/04 09:28:11;;;;;;;6.97;6.37;;;;;;;27.44;29.96;94779.22;5087250;28;20210;-65
2021/07/04 09:30:42;;;;;;;3.60;3.10;;;;;;;27.37;30.14;94768.38;5083179;28;20203;-65
2021/07/04 09:33:18;;;;;;;6.53;3.70;;;;;;;28.07;29.69;94780.03;5091869;28;20250;-67
2021/07/04 09:35:50;;;;;;;4.30;3.70;;;;;;;27.92;29.54;94778.28;5091598;28;20274;-70
2021/07/04 09:38:17;;;;;;;3.70;2.93;;;;;;;27.57;29.12;94770.56;5079112;28;20200;-68
2021/07/04 09:40:46;;;;;;;8.50;4.03;;;;;;;27.87;29.78;94759.75;5089327;28;20191;-69
2021/07/04 09:43:16;;;;;;;6.53;3.20;;;;;;;27.95;29.26;94766.81;5091950;28;20199;-67
2021/07/04 09:45:51;;;;;;;3.47;3.13;;;;;;;27.54;30.03;94757.03;5091569;28;20416;-68
2021/07/04 09:48:27;;;;;;;6.90;3.30;;;;;;;27.70;29.61;94749.59;5081724;28;20692;-67
2021/07/04 09:50:56;;;;;;;6.23;3.40;;;;;;;27.82;29.58;94762.78;5089044;28;20187;-65
2021/07/04 09:53:59;;;;;;;4.33;2.80;;;;;;;27.81;30.41;94755.84;5091166;28;20237;-66
2021/07/04 09:56:33;;;;;;;4.30;3.43;;;;;;;28.54;28.91;94753.19;5056971;28;20223;-65
2021/07/04 09:59:05;;;;;;;4.73;2.83;;;;;;;28.17;29.30;94740.88;5091372;28;20191;-68
2021/07/04 10:01:39;;;;;;;4.33;3.20;;;;;;;28.54;28.91;94750.50;5082908;28;20605;-64
2021/07/04 10:04:08;;;;;;;5.07;3.00;;;;;;;28.71;28.49;94738.31;5084727;28;20294;-66
2021/07/04 10:06:46;;;;;;;3.00;2.70;;;;;;;27.70;29.58;94739.56;5070810;28;20204;-68
2021/07/04 10:09:14;;;;;;;5.93;3.00;;;;;;;28.10;28.79;94738.91;5070253;28;20205;-66
2021/07/04 10:11:41;;;;;;;16.97;3.60;;;;;;;28.35;28.99;94734.53;5077442;28;20183;-71
2021/07/04 10:14:08;;;;;;;5.83;2.60;;;;;;;28.06;28.71;94732.69;5089249;28;20238;-69
2021/07/04 10:16:35;;;;;;;4.60;2.13;;;;;;;28.39;27.26;94732.63;5090713;28;20661;-71
2021/07/04 10:19:04;;;;;;;2.60;2.40;;;;;;;28.68;27.16;94728.28;5081335;28;20263;-67
2021/07/04 10:21:34;;;;;;;4.40;2.37;;;;;;;28.43;27.33;94728.03;5091511;28;20588;-68
2021/07/04 10:24:02;;;;;;;6.10;2.60;;;;;;;29.02;27.07;94720.78;5090346;28;20238;-67
2021/07/04 10:26:36;;;;;;;2.80;2.60;;;;;;;29.45;27.43;94717.97;5090758;28;20223;-70
2021/07/04 10:29:06;;;;;;;3.13;2.50;;;;;;;29.50;25.98;94709.53;5089902;28;20318;-68
2021/07/04 10:31:35;;;;;;;5.50;3.23;;;;;;;28.99;26.14;94712.31;5090107;28;20242;-68
2021/07/04 10:34:06;;;;;;;2.57;2.30;;;;;;;29.22;26.23;94703.22;5090034;28;20195;-64
2021/07/04 10:36:53;;;;;;;4.03;2.90;;;;;;;29.50;26.47;94703.34;5090654;28;20187;-68
2021/07/04 10:39:20;;;;;;;3.33;2.80;;;;;;;29.93;25.83;94721.28;5076224;28;20201;-67
2021/07/04 10:41:57;;;;;;;3.87;3.17;;;;;;;28.86;26.86;94723.78;5076916;28;20244;-71
2021/07/04 10:44:49;;;;;;;5.63;3.67;;;;;;;29.01;27.05;94713.88;5076686;28;20557;-69
2021/07/04 10:47:21;;;;;;;3.97;3.47;;;;;;;28.71;28.03;94711.34;5087535;28;20195;-66
2021/07/04 10:49:55;;;;;;;6.90;4.10;;;;;;;28.59;28.10;94693.56;5079216;28;20198;-65
2021/07/04 10:52:39;;;;;;;5.80;3.73;;;;;;;29.43;29.48;94703.34;5090844;28;20201;-68
2021/07/04 10:55:12;;;;;;;4.10;3.73;;;;;;;29.57;27.92;94706.09;5079097;28;20670;-66
2021/07/04 10:57:51;;;;;;;3.67;3.33;;;;;;;30.14;26.39;94693.53;5073743;28;20206;-67
2021/07/04 11:00:31;;;;;;;4.83;3.20;;;;;;;30.13;25.84;94692.00;5077793;28;20295;-66
2021/07/04 11:03:05;;;;;;;4.73;3.80;;;;;;;30.00;26.21;94696.97;5083676;28;20633;-69
2021/07/04 11:05:33;;;;;;;3.67;3.37;;;;;;;29.91;26.17;94691.94;5069585;28;20218;-67
2021/07/04 11:08:27;;;;;;;4.03;3.73;;;;;;;29.75;27.10;94699.63;5070157;28;20187;-67
2021/07/04 11:11:00;;;;;;;4.67;3.63;;;;;;;29.78;27.17;94698.09;5084301;28;20203;-72
2021/07/04 11:13:33;;;;;;;8.10;3.30;;;;;;;30.28;27.90;94688.94;5090277;28;20199;-69
2021/07/04 11:16:11;;;;;;;4.07;3.60;;;;;;;30.06;26.35;94673.84;5089395;28;20190;-68
2021/07/04 11:18:44;;;;;;;4.87;3.70;;;;;;;29.98;26.23;94675.00;5089363;28;20198;-66
2021/07/04 11:21:13;;;;;;;3.90;3.23;;;;;;;30.10;26.16;94673.84;5089636;28;20211;-67
2021/07/04 11:23:40;;;;;;;4.90;3.13;;;;;;;30.13;25.51;94681.94;5089937;28;20203;-68
2021/07/04 11:26:07;;;;;;;10.93;3.57;;;;;;;29.85;25.36;94687.31;5075960;28;20238;-70
2021/07/04 11:28:39;;;;;;;2.83;2.63;;;;;;;30.23;25.83;94678.50;5090036;28;20199;-67
2021/07/04 11:31:19;;;;;;;3.63;3.20;;;;;;;30.10;25.32;94690.84;5083925;28;20619;-65
2021/07/04 11:33:48;;;;;;;5.57;3.03;;;;;;;29.69;25.35;94684.16;5082431;28;20233;-67
2021/07/04 11:36:15;;;;;;;6.63;3.00;;;;;;;29.96;25.14;94674.59;5089033;28;20203;-66
2021/07/04 11:38:48;;;;;;;4.27;3.10;;;;;;;30.36;25.20;94674.28;5089984;28;20210;-68
2021/07/04 11:41:30;;;;;;;4.33;2.53;;;;;;;30.60;25.19;94673.50;5082769;28;20685;-65
2021/07/04 11:44:02;;;;;;;3.20;2.67;;;;;;;29.32;24.19;94676.28;5087382;28;20206;-66
2021/07/04 11:46:29;;;;;;;6.23;2.50;;;;;;;29.66;25.04;94679.50;5078977;28;20613;-65